createdAt,value
2019-02-16T00:02:23.574Z,6.50
2019-02-16T00:05:04.577Z,6.50
2019-02-16T00:07:52.194Z,6.50
2019-02-16T00:10:32.641Z,6.40
2019-02-16T00:13:20.104Z,6.40
2019-02-16T00:16:02.211Z,6.60
2019-02-16T00:18:30.158Z,6.70
2019-02-16T00:21:10.512Z,6.60
2019-02-16T00:23:38.507Z,6.60
2019-02-16T00:26:25.917Z,6.20
2019-02-16T00:29:07.069Z,6.60
2019-02-16T00:31:35.004Z,6.60
2019-02-16T00:34:15.244Z,6.30
2019-02-16T00:37:02.703Z,5.60
2019-02-16T00:39:43.777Z,6.60
2019-02-16T00:42:11.699Z,6.30
2019-02-16T00:44:39.613Z,6.70
2019-02-16T00:47:27.020Z,6.70
2019-02-16T00:50:07.296Z,5.60
2019-02-16T00:52:54.694Z,6.00
2019-02-16T00:55:35.707Z,5.80
2019-02-16T00:58:23.312Z,6.70
2019-02-16T01:01:03.789Z,6.60
2019-02-16T01:03:51.398Z,5.70
2019-02-16T01:06:32.433Z,6.40
2019-02-16T01:09:19.824Z,6.30
2019-02-16T01:11:47.728Z,6.30
2019-02-16T01:14:15.698Z,6.30
2019-02-16T01:16:43.573Z,6.10
2019-02-16T01:19:25.838Z,6.20
2019-02-16T01:22:05.935Z,6.20
2019-02-16T01:24:33.796Z,6.00
2019-02-16T01:27:21.173Z,5.50
2019-02-16T01:29:49.064Z,5.70
2019-02-16T01:32:17.009Z,5.60
2019-02-16T01:34:44.916Z,5.60
2019-02-16T01:37:12.804Z,5.50
2019-02-16T01:39:54.436Z,4.50
2019-02-16T01:42:41.813Z,5.50
2019-02-16T01:45:10.075Z,5.50
2019-02-16T01:47:38.002Z,5.60
2019-02-16T01:50:07.431Z,5.60
2019-02-16T01:52:35.322Z,5.80
2019-02-16T01:55:03.593Z,6.00
2019-02-16T01:57:31.547Z,5.80
2019-02-16T01:59:59.531Z,5.90
2019-02-16T02:02:47.157Z,4.80
2019-02-16T02:05:27.905Z,5.80
2019-02-16T02:08:15.330Z,4.60
2019-02-16T02:10:56.358Z,4.50
2019-02-16T02:13:43.870Z,4.00
2019-02-16T02:16:25.631Z,4.00
2019-02-16T02:18:53.518Z,4.90
2019-02-16T02:21:21.480Z,5.10
2019-02-16T02:24:04.323Z,4.60
2019-02-16T02:26:51.724Z,5.50
2019-02-16T02:29:32.212Z,4.40
2019-02-16T02:32:26.572Z,5.30
2019-02-16T02:35:07.619Z,5.40
2019-02-16T02:37:35.526Z,5.30
2019-02-16T02:40:03.630Z,5.30
2019-02-16T02:42:52.321Z,5.10
2019-02-16T02:45:32.418Z,3.90
2019-02-16T02:48:19.814Z,3.70
2019-02-16T02:50:47.690Z,4.70
2019-02-16T02:53:15.624Z,4.40
2019-02-16T02:55:43.533Z,4.00
2019-02-16T02:58:11.406Z,4.20
2019-02-16T03:00:52.170Z,3.30
2019-02-16T03:03:40.502Z,4.30
2019-02-16T03:06:21.452Z,4.40
2019-02-16T03:09:09.801Z,4.60
2019-02-16T03:11:37.745Z,4.60
2019-02-16T03:14:05.609Z,4.60
2019-02-16T03:16:33.599Z,4.80
2019-02-16T03:19:21.001Z,4.70
2019-02-16T03:22:03.147Z,4.80
2019-02-16T03:24:50.801Z,4.20
2019-02-16T03:27:54.626Z,5.00
2019-02-16T03:31:21.188Z,5.10
2019-02-16T03:34:08.208Z,5.00
2019-02-16T03:37:21.122Z,3.80
2019-02-16T03:39:49.042Z,5.10
2019-02-16T03:42:16.968Z,5.00
2019-02-16T03:45:04.374Z,5.00
2019-02-16T03:47:44.555Z,4.80
2019-02-16T03:50:32.049Z,4.70
2019-02-16T03:52:59.935Z,4.80
2019-02-16T03:55:47.249Z,3.60
2019-02-16T03:58:27.354Z,4.50
2019-02-16T04:01:14.869Z,4.10
2019-02-16T04:03:42.676Z,4.30
2019-02-16T04:06:30.060Z,2.60
2019-02-16T04:09:11.208Z,4.00
2019-02-16T04:11:51.722Z,4.30
2019-02-16T04:14:31.856Z,4.50
2019-02-16T04:16:59.662Z,4.50
2019-02-16T04:19:39.630Z,4.60
2019-02-16T04:22:24.667Z,4.50
2019-02-16T04:25:09.364Z,3.00
2019-02-16T04:27:49.890Z,4.40
2019-02-16T04:30:17.742Z,4.30
2019-02-16T04:32:57.832Z,4.30
2019-02-16T04:35:38.798Z,4.00
2019-02-16T04:38:19.180Z,3.30
2019-02-16T04:41:00.014Z,2.90
2019-02-16T04:43:40.542Z,4.40
2019-02-16T04:46:21.261Z,3.80
2019-02-16T04:48:49.100Z,4.20
2019-02-16T04:51:29.515Z,3.10
2019-02-16T04:54:16.848Z,3.60
2019-02-16T04:56:57.972Z,2.30
2019-02-16T04:59:45.307Z,3.20
2019-02-16T05:02:25.906Z,2.40
2019-02-16T05:05:13.426Z,2.00
2019-02-16T05:07:54.471Z,2.90
2019-02-16T05:10:41.763Z,2.30
2019-02-16T05:13:22.126Z,3.30
2019-02-16T05:16:09.496Z,3.70
2019-02-16T05:18:50.383Z,3.60
2019-02-16T05:21:37.761Z,3.50
2019-02-16T05:24:18.253Z,2.80
2019-02-16T05:26:46.134Z,2.90
2019-02-16T05:29:14.027Z,3.30
2019-02-16T05:31:41.940Z,3.40
2019-02-16T05:34:23.300Z,3.40
2019-02-16T05:37:10.686Z,3.40
2019-02-16T05:39:52.031Z,3.20
2019-02-16T05:42:32.310Z,2.00
2019-02-16T05:45:13.343Z,1.50
2019-02-16T05:47:53.433Z,3.10
2019-02-16T05:50:40.799Z,2.80
2019-02-16T05:53:21.761Z,2.50
2019-02-16T05:56:09.151Z,2.40
2019-02-16T05:58:49.418Z,2.40
2019-02-16T06:01:36.957Z,2.60
2019-02-16T06:04:17.761Z,1.60
2019-02-16T06:07:05.368Z,2.70
2019-02-16T06:09:45.890Z,3.00
2019-02-16T06:12:33.254Z,2.70
2019-02-16T06:15:13.484Z,1.50
2019-02-16T06:18:00.860Z,0.90
2019-02-16T06:20:41.544Z,2.40
2019-02-16T06:23:28.959Z,2.50
2019-02-16T06:25:57.025Z,2.40
2019-02-16T06:28:38.767Z,2.70
2019-02-16T06:31:07.614Z,2.50
2019-02-16T06:33:48.901Z,1.00
2019-02-16T06:36:55.892Z,2.40
2019-02-16T06:39:36.257Z,2.50
2019-02-16T06:42:04.607Z,2.60
2019-02-16T06:44:33.001Z,2.70
2019-02-16T06:47:00.959Z,2.60
2019-02-16T06:49:28.911Z,2.60
2019-02-16T06:51:56.804Z,3.00
2019-02-16T06:54:46.443Z,3.20
2019-02-16T06:57:29.675Z,3.20
2019-02-16T07:00:11.944Z,3.10
2019-02-16T07:02:52.637Z,1.90
2019-02-16T07:05:20.469Z,3.30
2019-02-16T07:08:01.005Z,3.20
2019-02-16T07:10:28.870Z,3.30
2019-02-16T07:13:09.145Z,3.40
2019-02-16T07:16:16.084Z,3.40
2019-02-16T07:19:00.466Z,3.70
2019-02-16T07:21:47.818Z,3.70
2019-02-16T07:24:28.689Z,3.80
2019-02-16T07:26:56.636Z,4.00
2019-02-16T07:29:37.100Z,3.90
2019-02-16T07:32:24.470Z,2.70
2019-02-16T07:35:06.029Z,5.90
2019-02-16T07:37:34.083Z,4.80
2019-02-16T07:40:14.839Z,5.80
2019-02-16T07:43:02.858Z,6.10
2019-02-16T07:45:51.000Z,5.90
2019-02-16T07:48:51.421Z,6.10
2019-02-16T07:51:58.963Z,6.50
2019-02-16T07:54:59.764Z,6.20
2019-02-16T07:58:06.838Z,6.00
2019-02-16T08:00:58.362Z,5.10
2019-02-16T08:04:05.718Z,4.50
2019-02-16T08:07:06.179Z,5.80
2019-02-16T08:10:13.392Z,6.10
2019-02-16T08:13:13.926Z,4.90
2019-02-16T08:16:21.081Z,6.50
2019-02-16T08:19:23.030Z,5.60
2019-02-16T08:22:30.183Z,5.80
2019-02-16T08:25:27.803Z,5.90
2019-02-16T08:28:35.290Z,7.00
2019-02-16T08:31:23.011Z,6.90
2019-02-16T08:34:30.040Z,6.10
2019-02-16T08:40:20.015Z,7.50
2019-02-16T08:43:15.744Z,7.80
2019-02-16T08:46:01.185Z,8.00
2019-02-16T08:49:04.317Z,8.20
2019-02-16T08:52:07.592Z,7.90
2019-02-16T08:54:55.340Z,8.50
2019-02-16T08:58:02.734Z,8.50
2019-02-16T09:01:02.489Z,8.70
2019-02-16T09:04:02.565Z,8.10
2019-02-16T09:06:57.600Z,8.50
2019-02-16T09:10:18.164Z,8.70
2019-02-16T09:12:50.382Z,8.70
2019-02-16T09:15:37.949Z,9.00
2019-02-16T09:18:44.986Z,8.10
2019-02-16T09:21:45.386Z,9.60
2019-02-16T09:24:48.376Z,9.80
2019-02-16T09:27:50.307Z,9.40
2019-02-16T09:30:43.544Z,9.40
2019-02-16T09:39:47.808Z,9.30
2019-02-16T09:42:35.383Z,9.10
2019-02-16T09:45:31.575Z,8.80
2019-02-16T09:48:19.225Z,10.10
2019-02-16T09:51:11.069Z,8.40
2019-02-16T09:54:18.661Z,9.20
2019-02-16T09:57:17.361Z,10.00
2019-02-16T10:00:05.083Z,10.30
2019-02-16T10:02:54.832Z,9.50
2019-02-16T10:05:40.253Z,10.30
2019-02-16T10:08:47.510Z,10.50
2019-02-16T10:11:23.638Z,10.10
2019-02-16T10:14:20.245Z,10.30
2019-02-16T10:16:58.861Z,10.10
2019-02-16T10:22:49.379Z,10.50
2019-02-16T10:25:26.745Z,10.20
2019-02-16T10:28:14.518Z,10.50
2019-02-16T10:31:02.133Z,10.70
2019-02-16T10:34:09.114Z,10.90
2019-02-16T10:37:09.135Z,10.90
2019-02-16T10:40:16.246Z,11.60
2019-02-16T10:43:09.998Z,11.70
2019-02-16T10:46:16.980Z,11.90
2019-02-16T10:48:59.099Z,12.20
2019-02-16T10:51:36.614Z,12.40
2019-02-16T10:54:29.626Z,11.60
2019-02-16T10:57:25.645Z,11.80
2019-02-16T11:00:13.229Z,11.70
2019-02-16T11:03:20.454Z,11.60
2019-02-16T11:06:07.981Z,12.10
2019-02-16T11:08:45.106Z,11.80
2019-02-16T11:11:48.276Z,12.60
2019-02-16T11:14:34.495Z,12.10
2019-02-16T11:20:18.569Z,12.90
2019-02-16T11:23:06.151Z,12.20
2019-02-16T11:25:50.163Z,12.10
2019-02-16T11:28:57.338Z,11.90
2019-02-16T11:31:46.381Z,11.50
2019-02-16T11:34:56.207Z,12.90
2019-02-16T11:37:58.753Z,12.60
2019-02-16T11:41:06.296Z,12.30
2019-02-16T11:44:00.187Z,13.20
2019-02-16T11:47:07.151Z,12.90
2019-02-16T11:50:14.786Z,12.90
2019-02-16T11:52:57.319Z,13.90
2019-02-16T11:56:05.147Z,13.40
2019-02-16T11:59:03.299Z,12.60
2019-02-16T12:01:56.117Z,14.10
2019-02-16T12:04:46.597Z,14.30
2019-02-16T12:07:34.126Z,14.90
2019-02-16T12:10:41.562Z,14.50
2019-02-16T12:13:32.001Z,13.30
2019-02-16T12:16:39.214Z,14.60
2019-02-16T12:19:36.510Z,15.20
2019-02-16T12:22:36.331Z,14.30
2019-02-16T12:25:24.345Z,14.90
2019-02-16T12:28:32.101Z,14.80
2019-02-16T12:31:39.323Z,14.90
2019-02-16T12:34:39.778Z,15.20
2019-02-16T12:37:28.744Z,14.80
2019-02-16T12:40:16.374Z,15.10
2019-02-16T12:43:03.880Z,15.30
2019-02-16T12:45:51.620Z,15.60
2019-02-16T12:48:38.575Z,14.90
2019-02-16T12:54:40.057Z,15.10
2019-02-16T12:57:30.200Z,14.90
2019-02-16T13:00:37.774Z,15.40
2019-02-16T13:03:39.117Z,15.30
2019-02-16T13:06:46.285Z,15.80
2019-02-16T13:09:47.819Z,14.50
2019-02-16T13:12:41.244Z,15.20
2019-02-16T13:15:48.855Z,16.00
2019-02-16T13:18:55.610Z,16.10
2019-02-16T13:21:32.101Z,16.00
2019-02-16T13:24:24.274Z,16.20
2019-02-16T13:27:31.561Z,15.10
2019-02-16T13:30:19.261Z,16.20
2019-02-16T13:33:26.260Z,16.80
2019-02-16T13:36:29.789Z,16.10
2019-02-16T13:39:32.940Z,16.10
2019-02-16T13:42:07.781Z,16.10
2019-02-16T13:44:56.330Z,14.70
2019-02-16T13:47:43.864Z,16.50
2019-02-16T13:50:31.383Z,17.00
2019-02-16T13:53:33.898Z,15.60
2019-02-16T13:56:21.715Z,17.20
2019-02-16T13:59:08.403Z,17.00
2019-02-16T14:05:08.344Z,16.20
2019-02-16T14:07:56.099Z,16.70
2019-02-16T14:10:43.695Z,16.30
2019-02-16T14:13:50.915Z,15.20
2019-02-16T14:16:42.041Z,16.30
2019-02-16T14:19:10.020Z,16.60
2019-02-16T14:21:51.283Z,16.10
2019-02-16T14:24:38.971Z,16.70
2019-02-16T14:27:19.414Z,16.50
2019-02-16T14:29:47.341Z,16.40
2019-02-16T14:32:15.299Z,16.30
2019-02-16T14:35:03.011Z,15.90
2019-02-16T14:41:03.609Z,16.70
2019-02-16T14:43:51.086Z,16.70
2019-02-16T14:46:31.408Z,16.80
2019-02-16T14:49:18.883Z,16.90
2019-02-16T14:51:59.966Z,16.80
2019-02-16T14:54:47.442Z,16.70
2019-02-16T14:57:28.403Z,16.40
2019-02-16T14:59:56.442Z,16.90
2019-02-16T15:02:36.981Z,15.90
2019-02-16T15:05:24.620Z,16.70
2019-02-16T15:08:06.043Z,16.70
2019-02-16T15:10:46.257Z,16.50
2019-02-16T15:13:27.702Z,17.20
2019-02-16T15:15:55.651Z,18.00
2019-02-16T15:18:40.690Z,16.60
2019-02-16T15:21:28.074Z,16.70
2019-02-16T15:24:08.602Z,16.70
2019-02-16T15:26:36.519Z,16.60
2019-02-16T15:29:16.933Z,16.50
2019-02-16T15:32:04.617Z,16.80
2019-02-16T15:34:44.928Z,16.10
2019-02-16T15:37:32.524Z,16.60
2019-02-16T15:40:13.321Z,16.90
2019-02-16T15:43:00.938Z,16.60
2019-02-16T15:45:41.570Z,17.70
2019-02-16T15:48:09.642Z,18.00
2019-02-16T15:50:57.086Z,18.70
2019-02-16T15:53:37.461Z,18.30
2019-02-16T15:56:10.579Z,17.80
2019-02-16T15:58:49.429Z,18.60
2019-02-16T16:01:17.709Z,18.40
2019-02-16T16:03:46.279Z,18.30
2019-02-16T16:06:33.962Z,18.60
2019-02-16T16:09:36.558Z,18.70
2019-02-16T16:12:43.581Z,18.30
2019-02-16T16:15:41.582Z,17.40
2019-02-16T16:19:02.005Z,16.20
2019-02-16T16:22:01.892Z,15.80
2019-02-16T16:24:48.844Z,16.00
2019-02-16T16:27:56.693Z,15.90
2019-02-16T16:30:45.038Z,15.80
2019-02-16T16:33:32.952Z,15.10
2019-02-16T16:36:22.788Z,13.90
2019-02-16T16:39:26.039Z,14.20
2019-02-16T16:42:09.220Z,14.90
2019-02-16T16:45:19.224Z,14.80
2019-02-16T16:48:26.524Z,13.80
2019-02-16T16:51:14.400Z,14.50
2019-02-16T16:54:22.046Z,14.40
2019-02-16T16:57:16.577Z,13.40
2019-02-16T17:00:04.354Z,14.30
2019-02-16T17:02:52.242Z,14.30
2019-02-16T17:05:59.268Z,14.20
2019-02-16T17:08:59.975Z,12.90
2019-02-16T17:12:04.429Z,11.90
2019-02-16T17:15:05.436Z,12.30
2019-02-16T17:17:52.957Z,12.90
2019-02-16T17:20:49.224Z,12.80
2019-02-16T17:23:56.240Z,12.30
2019-02-16T17:30:03.572Z,12.50
2019-02-16T17:33:10.017Z,12.10
2019-02-16T17:36:17.230Z,11.50
2019-02-16T17:39:17.324Z,12.40
2019-02-16T17:42:05.067Z,12.50
2019-02-16T17:45:05.795Z,11.40
2019-02-16T17:48:13.008Z,11.80
2019-02-16T17:51:00.327Z,11.70
2019-02-16T17:53:47.993Z,11.80
2019-02-16T17:56:35.619Z,11.80
2019-02-16T17:59:23.283Z,11.60
2019-02-16T18:05:31.875Z,10.20
2019-02-16T18:11:20.681Z,10.60
2019-02-16T18:17:23.616Z,10.30
2019-02-16T18:20:00.322Z,10.40
2019-02-16T18:23:02.317Z,10.50
2019-02-16T18:29:12.225Z,10.40
2019-02-16T18:32:19.711Z,9.40
2019-02-16T18:35:05.997Z,10.40
2019-02-16T18:37:41.266Z,10.40
2019-02-16T18:40:41.582Z,9.80
2019-02-16T18:43:27.570Z,10.40
2019-02-16T18:52:50.190Z,10.00
2019-02-16T18:55:43.822Z,9.90
2019-02-16T19:01:23.168Z,9.80
2019-02-16T19:04:10.819Z,9.80
2019-02-16T19:06:54.397Z,9.40
2019-02-16T19:09:30.690Z,9.10
2019-02-16T19:12:18.431Z,9.20
2019-02-16T19:15:19.745Z,8.60
2019-02-16T19:17:55.240Z,9.40
2019-02-16T19:20:57.221Z,8.50
2019-02-16T19:23:47.134Z,9.40
2019-02-16T19:26:34.758Z,9.40
2019-02-16T19:29:22.605Z,9.20
2019-02-16T19:32:22.916Z,8.20
2019-02-16T19:35:10.954Z,9.10
2019-02-16T19:38:04.490Z,8.80
2019-02-16T19:44:06.674Z,9.10
2019-02-16T19:53:14.731Z,7.90
2019-02-16T19:58:59.130Z,8.20
2019-02-16T20:02:08.217Z,8.30
2019-02-16T20:05:11.569Z,8.00
2019-02-16T20:08:18.807Z,8.20
2019-02-16T20:11:12.052Z,8.20
2019-02-16T20:13:59.991Z,8.20
2019-02-16T20:16:47.813Z,7.70
2019-02-16T20:19:35.508Z,7.70
2019-02-16T20:22:23.199Z,7.80
2019-02-16T20:25:09.682Z,7.00
2019-02-16T20:28:02.459Z,6.60
2019-02-16T20:30:50.319Z,7.10
2019-02-16T20:33:23.713Z,7.40
2019-02-16T20:36:30.798Z,7.70
2019-02-16T20:39:26.766Z,7.80
2019-02-16T20:42:14.459Z,8.00
2019-02-16T20:45:08.524Z,7.90
2019-02-16T20:47:58.341Z,7.70
2019-02-16T20:50:49.164Z,7.30
2019-02-16T20:53:56.279Z,7.30
2019-02-16T20:56:46.500Z,7.10
2019-02-16T20:59:34.283Z,6.80
2019-02-16T21:02:19.298Z,6.60
2019-02-16T21:05:26.587Z,6.70
2019-02-16T21:08:14.770Z,6.70
2019-02-16T21:11:02.461Z,6.90
2019-02-16T21:13:38.028Z,6.90
2019-02-16T21:16:25.667Z,6.70
2019-02-16T21:19:26.700Z,5.70
2019-02-16T21:22:33.794Z,6.90
2019-02-16T21:25:24.496Z,7.20
2019-02-16T21:28:13.756Z,7.10
2019-02-16T21:33:46.902Z,7.10
2019-02-16T21:36:35.031Z,7.10
2019-02-16T21:42:24.111Z,6.80
2019-02-16T21:45:13.550Z,6.90
2019-02-16T21:48:13.944Z,6.70
2019-02-16T21:51:21.023Z,6.90
2019-02-16T21:54:13.086Z,6.60
2019-02-16T22:00:33.469Z,5.40
2019-02-16T22:03:41.142Z,5.20
2019-02-16T22:06:42.748Z,5.30
2019-02-16T22:09:40.463Z,6.00
2019-02-16T22:12:46.441Z,6.00
2019-02-16T22:15:34.003Z,6.00
2019-02-16T22:18:14.889Z,6.10
2019-02-16T22:21:02.403Z,5.90
2019-02-16T22:23:30.584Z,5.80
2019-02-16T22:26:18.310Z,5.00
2019-02-16T22:28:46.733Z,5.60
2019-02-16T22:31:34.335Z,5.70
2019-02-16T22:34:16.764Z,5.90
2019-02-16T22:37:01.253Z,5.80
2019-02-16T22:39:42.077Z,5.60
2019-02-16T22:42:23.205Z,4.70
2019-02-16T22:44:54.334Z,5.70
2019-02-16T22:47:41.449Z,5.00
2019-02-16T22:50:23.539Z,5.70
2019-02-16T22:53:11.321Z,4.80
2019-02-16T22:55:40.499Z,5.90
2019-02-16T22:58:29.244Z,4.80
2019-02-16T23:00:57.695Z,6.00
2019-02-16T23:03:30.123Z,6.00
2019-02-16T23:05:58.182Z,5.30
2019-02-16T23:08:26.761Z,5.90
2019-02-16T23:10:54.774Z,5.30
2019-02-16T23:13:23.588Z,5.80
2019-02-16T23:16:04.455Z,5.80
2019-02-16T23:18:45.400Z,5.60
2019-02-16T23:21:25.727Z,5.60
2019-02-16T23:24:06.418Z,5.80
2019-02-16T23:26:54.029Z,5.70
2019-02-16T23:29:22.158Z,5.80
2019-02-16T23:32:02.252Z,5.90
2019-02-16T23:34:30.985Z,5.40
2019-02-16T23:37:11.691Z,5.60
2019-02-16T23:39:59.440Z,4.90
2019-02-16T23:42:28.856Z,5.50
2019-02-16T23:45:16.562Z,5.50
2019-02-16T23:47:57.790Z,5.60
2019-02-16T23:50:25.868Z,5.60
2019-02-16T23:52:54.122Z,5.50
2019-02-16T23:55:41.638Z,5.80
2019-02-16T23:58:21.884Z,5.70
